createdAt,value
2024-02-15T00:02:52.723Z,100954.75
2024-02-15T00:05:57.677Z,100953.91
2024-02-15T00:09:00.067Z,100961.97
2024-02-15T00:12:03.332Z,100956.56
2024-02-15T00:15:06.140Z,100957.34
2024-02-15T00:18:09.354Z,100960.50
2024-02-15T00:21:12.529Z,100956.75
2024-02-15T00:24:18.429Z,100956.94
2024-02-15T00:27:22.519Z,100950.44
2024-02-15T00:30:25.427Z,100954.75
2024-02-15T00:33:27.867Z,100951.72
2024-02-15T00:36:31.217Z,100951.13
2024-02-15T00:39:33.669Z,100952.44
2024-02-15T00:42:37.123Z,100950.13
2024-02-15T00:45:41.356Z,100948.72
2024-02-15T00:48:44.451Z,100950.19
2024-02-15T00:51:46.923Z,100948.13
2024-02-15T00:54:49.822Z,100955.87
2024-02-15T00:57:52.132Z,100967.25
2024-02-15T01:00:55.361Z,100965.75
2024-02-15T01:03:57.840Z,100962.28
2024-02-15T01:07:00.820Z,100957.28
2024-02-15T01:10:05.287Z,100971.47
2024-02-15T01:13:09.824Z,100962.56
2024-02-15T01:16:12.233Z,100970.16
2024-02-15T01:19:15.339Z,100974.78
2024-02-15T01:22:17.821Z,100967.78
2024-02-15T01:25:22.406Z,100965.81
2024-02-15T01:28:24.830Z,100958.69
2024-02-15T01:31:27.744Z,100959.81
2024-02-15T01:34:30.214Z,100967.88
2024-02-15T01:37:33.250Z,100958.84
2024-02-15T01:40:36.394Z,100953.78
2024-02-15T01:43:39.352Z,100962.87
2024-02-15T01:46:41.811Z,100959.66
2024-02-15T01:49:44.747Z,100956.13
2024-02-15T01:52:48.687Z,100962.06
2024-02-15T01:55:53.366Z,100963.09
2024-02-15T01:58:56.024Z,100955.97
2024-02-15T02:01:58.954Z,100947.75
2024-02-15T02:05:02.152Z,100954.06
2024-02-15T02:08:10.400Z,100947.41
2024-02-15T02:11:13.734Z,100944.34
2024-02-15T02:14:16.880Z,100932.66
2024-02-15T02:17:21.282Z,100939.16
2024-02-15T02:20:24.662Z,100939.16
2024-02-15T02:23:30.266Z,100940.72
2024-02-15T02:26:33.034Z,100944.44
2024-02-15T02:29:35.704Z,100935.34
2024-02-15T02:32:39.784Z,100935.37
2024-02-15T02:35:42.611Z,100924.50
2024-02-15T02:38:46.585Z,100931.91
2024-02-15T02:41:49.333Z,100930.16
2024-02-15T02:44:51.910Z,100937.50
2024-02-15T02:47:55.105Z,100925.91
2024-02-15T02:50:57.939Z,100935.09
2024-02-15T02:54:00.732Z,100932.34
2024-02-15T02:57:07.990Z,100938.69
2024-02-15T03:00:18.908Z,100936.22
2024-02-15T03:03:21.562Z,100937.38
2024-02-15T03:06:26.182Z,100930.16
2024-02-15T03:09:30.466Z,100937.88
2024-02-15T03:12:33.591Z,100941.38
2024-02-15T03:15:36.572Z,100938.22
2024-02-15T03:18:39.962Z,100937.94
2024-02-15T03:21:47.662Z,100939.75
2024-02-15T03:24:50.304Z,100935.69
2024-02-15T03:27:57.275Z,100938.06
2024-02-15T03:31:01.774Z,100933.78
2024-02-15T03:34:05.373Z,100945.66
2024-02-15T03:37:08.251Z,100947.25
2024-02-15T03:40:11.063Z,100950.72
2024-02-15T03:43:14.159Z,100947.12
2024-02-15T03:46:16.838Z,100949.50
2024-02-15T03:49:19.572Z,100950.22
2024-02-15T03:52:23.127Z,100955.41
2024-02-15T03:55:26.563Z,100950.88
2024-02-15T03:58:29.423Z,100941.44
2024-02-15T04:01:35.367Z,100943.38
2024-02-15T04:04:38.305Z,100943.38
2024-02-15T04:07:40.988Z,100949.66
2024-02-15T04:10:44.146Z,100954.69
2024-02-15T04:13:46.592Z,100953.78
2024-02-15T04:16:49.565Z,100944.94
2024-02-15T04:19:52.678Z,100942.50
2024-02-15T04:22:55.836Z,100944.44
2024-02-15T04:25:59.039Z,100938.13
2024-02-15T04:29:01.994Z,100942.41
2024-02-15T04:32:05.018Z,100939.97
2024-02-15T04:35:09.616Z,100938.31
2024-02-15T04:38:13.459Z,100938.03
2024-02-15T04:41:16.334Z,100936.00
2024-02-15T04:44:21.321Z,100934.31
2024-02-15T04:47:24.550Z,100939.06
2024-02-15T04:50:27.520Z,100940.19
2024-02-15T04:53:31.786Z,100936.00
2024-02-15T04:56:34.547Z,100942.28
2024-02-15T04:59:38.757Z,100943.25
2024-02-15T05:02:42.138Z,100940.81
2024-02-15T05:05:45.863Z,100939.47
2024-02-15T05:08:48.583Z,100956.22
2024-02-15T05:11:51.582Z,100960.97
2024-02-15T05:14:54.914Z,100960.88
2024-02-15T05:17:58.187Z,100968.00
2024-02-15T05:21:02.468Z,100965.41
2024-02-15T05:24:06.354Z,100967.06
2024-02-15T05:27:09.737Z,100977.72
2024-02-15T05:30:13.706Z,100967.56
2024-02-15T05:33:16.216Z,100963.75
2024-02-15T05:36:22.819Z,100975.13
2024-02-15T05:39:26.380Z,100973.19
2024-02-15T05:42:29.224Z,100975.63
2024-02-15T05:45:34.744Z,100971.22
2024-02-15T05:48:40.749Z,100985.69
2024-02-15T05:51:45.302Z,100980.03
2024-02-15T05:54:48.718Z,100976.03
2024-02-15T05:57:51.003Z,100977.09
2024-02-15T06:00:55.796Z,100989.84
2024-02-15T06:03:58.852Z,100993.03
2024-02-15T06:07:02.052Z,100997.41
2024-02-15T06:10:05.431Z,100988.28
2024-02-15T06:13:10.632Z,101004.00
2024-02-15T06:16:13.396Z,100995.38
2024-02-15T06:19:16.574Z,100996.78
2024-02-15T06:22:19.416Z,101008.22
2024-02-15T06:25:23.397Z,101003.56
2024-02-15T06:28:45.342Z,101012.84
2024-02-15T06:32:06.444Z,101011.38
2024-02-15T06:35:27.861Z,101023.00
2024-02-15T06:38:49.448Z,101015.16
2024-02-15T06:41:52.712Z,101022.12
2024-02-15T06:44:55.455Z,101015.88
2024-02-15T06:47:58.966Z,101028.31
2024-02-15T06:51:01.773Z,101025.41
2024-02-15T06:54:04.753Z,101032.19
2024-02-15T06:57:08.222Z,101035.31
2024-02-15T07:00:15.932Z,101032.06
2024-02-15T07:03:18.814Z,101032.06
2024-02-15T07:06:22.953Z,101036.44
2024-02-15T07:09:25.872Z,101044.59
2024-02-15T07:12:28.766Z,101030.56
2024-02-15T07:15:34.274Z,101043.91
2024-02-15T07:18:37.547Z,101036.97
2024-02-15T07:21:40.558Z,101038.25
2024-02-15T07:24:43.263Z,101051.13
2024-02-15T07:27:45.993Z,101051.13
2024-02-15T07:30:52.830Z,101054.09
2024-02-15T07:33:55.800Z,101054.09
2024-02-15T07:37:01.600Z,101057.91
2024-02-15T07:40:09.392Z,101052.72
2024-02-15T07:43:12.114Z,101052.56
2024-02-15T07:46:15.469Z,101052.03
2024-02-15T07:49:21.248Z,101049.28
2024-02-15T07:52:24.046Z,101047.97
2024-02-15T07:55:26.702Z,101048.94
2024-02-15T07:58:29.391Z,101046.38
2024-02-15T08:01:32.719Z,101041.59
2024-02-15T08:04:41.672Z,101039.75
2024-02-15T08:07:48.673Z,101043.53
2024-02-15T08:10:52.772Z,101045.09
2024-02-15T08:13:55.923Z,101047.25
2024-02-15T08:16:58.981Z,101044.97
2024-02-15T08:20:01.465Z,101045.62
2024-02-15T08:23:05.444Z,101044.81
2024-02-15T08:26:07.889Z,101049.84
2024-02-15T08:29:10.933Z,101052.00
2024-02-15T08:32:13.336Z,101052.81
2024-02-15T08:35:16.962Z,101046.81
2024-02-15T08:38:20.027Z,101047.75
2024-02-15T08:41:27.798Z,101048.56
2024-02-15T08:44:30.495Z,101045.88
2024-02-15T08:47:33.545Z,101043.34
2024-02-15T08:50:35.968Z,101036.94
2024-02-15T08:53:39.247Z,101032.41
2024-02-15T08:56:41.779Z,101049.03
2024-02-15T08:59:44.802Z,101069.12
2024-02-15T09:02:48.005Z,101065.50
2024-02-15T09:05:51.220Z,101060.81
2024-02-15T09:08:53.805Z,101066.19
2024-02-15T09:11:56.879Z,101055.97
2024-02-15T09:14:59.501Z,101050.97
2024-02-15T09:18:02.645Z,101062.75
2024-02-15T09:21:06.414Z,101064.88
2024-02-15T09:24:09.510Z,101070.84
2024-02-15T09:27:13.324Z,101060.34
2024-02-15T09:30:17.350Z,101049.84
2024-02-15T09:33:22.915Z,101052.66
2024-02-15T09:36:25.937Z,101058.06
2024-02-15T09:39:29.062Z,101060.13
2024-02-15T09:42:32.031Z,101060.06
2024-02-15T09:45:36.239Z,101063.78
2024-02-15T09:48:41.669Z,101058.81
2024-02-15T09:51:45.018Z,101050.16
2024-02-15T09:54:48.297Z,101050.56
2024-02-15T09:57:51.147Z,101057.75
2024-02-15T10:00:54.245Z,101056.38
2024-02-15T10:03:58.583Z,101062.91
2024-02-15T10:07:01.278Z,101060.84
2024-02-15T10:10:21.016Z,101058.44
2024-02-15T10:13:24.688Z,101057.84
2024-02-15T10:16:27.890Z,101055.78
2024-02-15T10:19:36.045Z,101053.34
2024-02-15T10:22:38.901Z,101048.56
2024-02-15T10:25:42.364Z,101045.09
2024-02-15T10:28:45.134Z,101046.06
2024-02-15T10:31:55.172Z,101053.78
2024-02-15T10:34:58.074Z,101051.47
2024-02-15T10:38:10.982Z,101048.13
2024-02-15T10:41:14.121Z,101051.22
2024-02-15T10:44:24.349Z,101048.22
2024-02-15T10:47:27.265Z,101040.06
2024-02-15T10:50:29.928Z,101041.56
2024-02-15T10:53:34.519Z,101038.38
2024-02-15T10:56:38.984Z,101042.91
2024-02-15T10:59:50.261Z,101041.16
2024-02-15T11:03:03.436Z,101042.22
2024-02-15T11:06:07.923Z,101032.34
2024-02-15T11:09:12.520Z,101037.19
2024-02-15T11:12:17.296Z,101034.16
2024-02-15T11:15:40.875Z,101035.69
2024-02-15T11:18:50.446Z,101030.66
2024-02-15T11:22:05.705Z,101029.25
2024-02-15T11:25:12.996Z,101029.06
2024-02-15T11:28:21.739Z,101029.31
2024-02-15T11:31:43.340Z,101028.16
2024-02-15T11:34:49.745Z,101022.94
2024-02-15T11:37:59.216Z,101028.16
2024-02-15T11:41:03.002Z,101021.81
2024-02-15T11:44:06.938Z,101022.84
2024-02-15T11:47:11.661Z,101027.66
2024-02-15T11:50:16.079Z,101024.00
2024-02-15T11:53:19.604Z,101015.75
2024-02-15T11:56:23.039Z,101011.62
2024-02-15T11:59:33.938Z,100999.84
2024-02-15T12:02:55.210Z,101004.72
2024-02-15T12:06:17.012Z,100998.97
2024-02-15T12:09:39.615Z,100997.22
2024-02-15T12:13:10.110Z,100997.28
2024-02-15T12:16:35.523Z,100998.38
2024-02-15T12:19:38.710Z,101002.19
2024-02-15T12:22:45.863Z,100993.16
2024-02-15T12:25:52.887Z,100995.38
2024-02-15T12:28:59.475Z,100985.06
2024-02-15T12:32:02.431Z,100984.00
2024-02-15T12:35:16.970Z,100984.25
2024-02-15T12:38:20.145Z,100978.41
2024-02-15T12:41:22.559Z,100973.47
2024-02-15T12:44:28.343Z,100974.19
2024-02-15T12:47:31.888Z,100969.25
2024-02-15T12:50:35.490Z,100973.13
2024-02-15T12:53:37.872Z,100969.69
2024-02-15T12:56:41.055Z,100962.53
2024-02-15T12:59:43.797Z,100958.59
2024-02-15T13:02:48.677Z,100967.09
2024-02-15T13:05:52.188Z,100962.81
2024-02-15T13:08:55.167Z,100954.19
2024-02-15T13:11:59.704Z,100960.69
2024-02-15T13:15:04.715Z,100952.94
2024-02-15T13:18:14.142Z,100958.72
2024-02-15T13:21:18.512Z,100953.69
2024-02-15T13:24:22.157Z,100960.81
2024-02-15T13:27:25.485Z,100963.75
2024-02-15T13:30:31.491Z,100957.62
2024-02-15T13:33:34.804Z,100948.56
2024-02-15T13:36:37.763Z,100952.00
2024-02-15T13:39:44.278Z,100945.59
2024-02-15T13:43:00.136Z,100944.88
2024-02-15T13:46:03.424Z,100945.50
2024-02-15T13:49:07.315Z,100946.66
2024-02-15T13:52:13.042Z,100941.47
2024-02-15T13:55:16.839Z,100934.19
2024-02-15T13:58:20.031Z,100935.19
2024-02-15T14:01:22.510Z,100934.69
2024-02-15T14:04:28.335Z,100936.38
2024-02-15T14:07:30.806Z,100938.28
2024-02-15T14:10:36.176Z,100932.06
2024-02-15T14:13:38.780Z,100946.72
2024-02-15T14:16:41.802Z,100949.19
2024-02-15T14:19:44.687Z,100931.94
2024-02-15T14:22:51.062Z,100928.06
2024-02-15T14:25:54.337Z,100934.22
2024-02-15T14:28:57.261Z,100931.97
2024-02-15T14:32:18.428Z,100920.75
2024-02-15T14:35:21.653Z,100926.00
2024-02-15T14:38:25.456Z,100930.06
2024-02-15T14:41:33.771Z,100934.22
2024-02-15T14:44:37.731Z,100933.81
2024-02-15T14:47:40.792Z,100936.75
2024-02-15T14:50:43.819Z,100944.59
2024-02-15T14:53:46.832Z,100950.09
2024-02-15T14:56:49.511Z,100940.19
2024-02-15T14:59:52.663Z,100935.50
2024-02-15T15:02:57.782Z,100941.47
2024-02-15T15:06:19.404Z,100936.66
2024-02-15T15:09:40.517Z,100946.75
2024-02-15T15:12:46.745Z,100938.63
2024-02-15T15:15:49.565Z,100940.38
2024-02-15T15:18:55.152Z,100935.94
2024-02-15T15:21:57.645Z,100933.84
2024-02-15T15:25:00.588Z,100934.44
2024-02-15T15:28:03.197Z,100934.81
2024-02-15T15:31:08.210Z,100934.41
2024-02-15T15:34:10.958Z,100934.09
2024-02-15T15:37:14.721Z,100932.66
2024-02-15T15:40:17.813Z,100936.44
2024-02-15T15:43:21.049Z,100929.53
2024-02-15T15:46:23.428Z,100936.97
2024-02-15T15:49:26.868Z,100932.66
2024-02-15T15:52:29.330Z,100929.91
2024-02-15T15:55:32.592Z,100931.34
2024-02-15T15:58:35.332Z,100936.56
2024-02-15T16:01:49.074Z,100940.78
2024-02-15T16:04:59.797Z,100944.00
2024-02-15T16:08:05.963Z,100944.12
2024-02-15T16:11:09.043Z,100938.97
2024-02-15T16:14:14.367Z,100939.50
2024-02-15T16:17:17.232Z,100942.13
2024-02-15T16:20:19.980Z,100943.06
2024-02-15T16:23:23.780Z,100943.69
2024-02-15T16:26:27.506Z,100941.69
2024-02-15T16:29:30.521Z,100935.37
2024-02-15T16:32:33.296Z,100943.59
2024-02-15T16:35:37.531Z,100937.78
2024-02-15T16:38:42.087Z,100940.31
2024-02-15T16:41:49.069Z,100947.09
2024-02-15T16:44:53.658Z,100951.44
2024-02-15T16:48:02.218Z,100965.22
2024-02-15T16:51:07.967Z,100961.50
2024-02-15T16:54:11.121Z,100956.31
2024-02-15T16:57:15.929Z,100962.09
2024-02-15T17:00:19.639Z,100970.50
2024-02-15T17:03:22.538Z,100975.59
2024-02-15T17:06:25.564Z,100971.91
2024-02-15T17:09:28.465Z,100978.91
2024-02-15T17:12:31.152Z,100989.87
2024-02-15T17:15:35.631Z,100983.00
2024-02-15T17:18:41.518Z,100989.09
2024-02-15T17:21:44.344Z,100987.62
2024-02-15T17:24:47.088Z,100991.34
2024-02-15T17:27:51.526Z,100995.03
2024-02-15T17:30:54.282Z,100995.12
2024-02-15T17:33:57.913Z,101000.25
2024-02-15T17:37:00.833Z,100994.91
2024-02-15T17:40:04.369Z,101005.63
2024-02-15T17:43:08.928Z,101002.13
2024-02-15T17:46:12.096Z,101015.88
2024-02-15T17:49:14.832Z,101004.75
2024-02-15T17:52:19.881Z,101006.81
2024-02-15T17:55:24.018Z,101006.06
2024-02-15T17:58:28.467Z,101006.81
2024-02-15T18:01:38.794Z,101005.03
2024-02-15T18:04:41.888Z,101008.59
2024-02-15T18:07:44.708Z,101002.87
2024-02-15T18:10:47.974Z,101000.53
2024-02-15T18:13:50.431Z,100998.84
2024-02-15T18:16:53.721Z,101006.41
2024-02-15T18:19:58.258Z,100998.94
2024-02-15T18:23:01.985Z,101010.03
2024-02-15T18:26:04.535Z,101004.88
2024-02-15T18:29:07.627Z,101007.84
2024-02-15T18:32:10.021Z,101004.88
2024-02-15T18:35:13.535Z,101008.88
2024-02-15T18:38:16.896Z,101007.00
2024-02-15T18:41:19.929Z,101000.81
2024-02-15T18:44:22.324Z,101004.06
2024-02-15T18:47:25.253Z,100998.34
2024-02-15T18:50:28.029Z,101001.56
2024-02-15T18:53:31.080Z,100993.63
2024-02-15T18:56:33.575Z,101002.56
2024-02-15T18:59:36.667Z,100999.78
2024-02-15T19:02:39.173Z,101000.59
2024-02-15T19:05:45.441Z,101004.25
2024-02-15T19:08:48.450Z,100998.69
2024-02-15T19:11:53.594Z,101006.47
2024-02-15T19:14:59.502Z,101002.59
2024-02-15T19:18:06.447Z,101002.31
2024-02-15T19:21:10.792Z,101002.31
2024-02-15T19:24:14.258Z,101000.66
2024-02-15T19:27:16.941Z,101002.31
2024-02-15T19:30:20.813Z,101001.28
2024-02-15T19:33:24.690Z,100996.75
2024-02-15T19:36:27.747Z,100998.38
2024-02-15T19:39:32.672Z,101000.97
2024-02-15T19:42:35.616Z,100998.25
2024-02-15T19:45:42.789Z,101009.72
2024-02-15T19:48:50.703Z,101020.06
2024-02-15T19:51:53.455Z,101020.22
2024-02-15T19:54:58.114Z,101020.91
2024-02-15T19:58:00.476Z,101025.09
2024-02-15T20:01:03.836Z,101018.44
2024-02-15T20:04:07.961Z,101023.66
2024-02-15T20:07:12.614Z,101020.09
2024-02-15T20:10:15.699Z,101017.41
2024-02-15T20:13:19.305Z,101025.78
2024-02-15T20:16:23.378Z,101027.47
2024-02-15T20:19:29.230Z,101025.00
2024-02-15T20:22:31.927Z,101026.87
2024-02-15T20:25:34.600Z,101022.53
2024-02-15T20:28:38.212Z,101025.16
2024-02-15T20:31:43.992Z,101026.25
2024-02-15T20:34:49.719Z,101033.22
2024-02-15T20:37:52.782Z,101033.13
2024-02-15T20:41:02.523Z,101027.84
2024-02-15T20:44:05.444Z,101019.56
2024-02-15T20:47:13.073Z,101018.28
2024-02-15T20:50:18.422Z,101020.81
2024-02-15T20:53:21.311Z,101024.19
2024-02-15T20:56:24.113Z,101028.31
2024-02-15T20:59:28.277Z,101023.00
2024-02-15T21:02:32.773Z,101031.88
2024-02-15T21:05:35.904Z,101029.19
2024-02-15T21:08:38.713Z,101027.84
2024-02-15T21:11:41.451Z,101031.19
2024-02-15T21:14:44.185Z,101030.16
2024-02-15T21:17:47.184Z,101027.37
2024-02-15T21:20:50.424Z,101028.16
2024-02-15T21:23:54.623Z,101027.84
2024-02-15T21:26:59.968Z,101030.63
2024-02-15T21:30:05.726Z,101030.84
2024-02-15T21:33:08.870Z,101028.38
2024-02-15T21:36:12.474Z,101028.06
2024-02-15T21:39:15.329Z,101022.09
2024-02-15T21:42:18.114Z,101018.31
2024-02-15T21:45:21.177Z,101019.87
2024-02-15T21:48:24.162Z,101016.63
2024-02-15T21:51:27.212Z,101018.84
2024-02-15T21:54:30.129Z,101025.69
2024-02-15T21:57:33.831Z,101010.28
2024-02-15T22:00:38.323Z,101009.66
2024-02-15T22:03:46.233Z,101018.34
2024-02-15T22:06:51.345Z,101021.97
2024-02-15T22:09:57.724Z,101032.50
2024-02-15T22:13:07.838Z,101023.91
2024-02-15T22:16:22.797Z,101024.94
2024-02-15T22:19:25.352Z,101027.56
2024-02-15T22:22:28.408Z,101021.44
2024-02-15T22:25:34.048Z,101021.28
2024-02-15T22:28:37.086Z,101022.34
2024-02-15T22:31:39.590Z,101024.81
2024-02-15T22:34:42.777Z,101030.22
2024-02-15T22:37:45.288Z,101024.94
2024-02-15T22:40:48.264Z,101022.06
2024-02-15T22:43:51.318Z,101022.78
2024-02-15T22:46:55.008Z,101028.78
2024-02-15T22:49:58.315Z,101031.22
2024-02-15T22:53:02.966Z,101030.25
2024-02-15T22:56:05.435Z,101018.41
2024-02-15T22:59:08.688Z,101027.66
2024-02-15T23:02:11.120Z,101025.03
2024-02-15T23:05:14.231Z,101017.06
2024-02-15T23:08:16.798Z,101024.22
2024-02-15T23:11:19.997Z,101011.16
2024-02-15T23:14:24.386Z,101010.44
2024-02-15T23:17:29.341Z,101016.69
2024-02-15T23:20:31.783Z,101014.88
2024-02-15T23:23:35.580Z,101016.53
2024-02-15T23:26:37.925Z,101023.31
2024-02-15T23:29:41.610Z,101024.28
2024-02-15T23:32:44.059Z,101020.25
2024-02-15T23:36:05.955Z,101022.78
2024-02-15T23:39:37.161Z,101018.19
2024-02-15T23:42:40.312Z,101022.56
2024-02-15T23:45:42.881Z,101021.91
2024-02-15T23:48:46.169Z,101012.22
2024-02-15T23:51:50.237Z,101014.00
2024-02-15T23:54:53.214Z,101012.97
2024-02-15T23:57:58.779Z,101018.34
